Time;durP1;ratioP1;P1;durP2;ratioP2;P2;SDS_P1;SDS_P2;PMS_P1;PMS_P2;Temp;Humidity;BMP_temperature;BMP_pressure;BME280_temperature;BME280_humidity;BME280_pressure;Samples;Min_cycle;Max_cycle;Signal;HPM_P1;HPM_P2
2021/10/21 00:00:24;;;;;;;9.27;8.50;;;13.70;99.90;;;14.39;95.47;96778.31;5175435;28;20321;-62
2021/10/21 00:02:58;;;;;;;9.40;8.38;;;13.70;99.90;;;14.35;97.36;96765.31;5183194;28;20201;-63
2021/10/21 00:05:31;;;;;;;10.40;9.38;;;13.70;99.90;;;14.30;98.06;96760.06;5190028;28;20215;-61
2021/10/21 00:08:05;;;;;;;9.48;8.65;;;13.70;99.90;;;14.29;98.73;96762.59;5192720;28;20219;-63
2021/10/21 00:10:40;;;;;;;9.82;8.93;;;13.60;99.90;;;14.27;100.00;96752.28;5180400;28;20253;-63
2021/10/21 00:13:13;;;;;;;10.18;9.38;;;13.60;99.90;;;14.23;100.00;96760.75;5183035;28;20213;-63
2021/10/21 00:15:46;;;;;;;10.60;9.70;;;13.60;99.90;;;14.25;100.00;96751.41;5176010;28;20274;-63
2021/10/21 00:18:20;;;;;;;10.68;9.68;;;13.60;99.90;;;14.18;100.00;96762.34;5186033;28;20209;-64
2021/10/21 00:20:54;;;;;;;10.63;9.73;;;13.50;99.90;;;14.13;100.00;96753.63;5194932;28;20293;-65
2021/10/21 00:23:27;;;;;;;11.27;10.18;;;13.50;99.90;;;14.14;100.00;96755.38;5195013;28;20209;-64
2021/10/21 00:26:06;;;;;;;11.15;10.15;;;13.50;99.90;;;14.15;100.00;96737.41;5185350;28;20749;-65
2021/10/21 00:28:39;;;;;;;11.55;10.35;;;13.50;99.90;;;14.15;100.00;96732.28;5183062;28;20222;-63
2021/10/21 00:31:13;;;;;;;10.90;9.80;;;13.50;99.90;;;14.20;100.00;96765.81;5194493;28;20254;-64
2021/10/21 00:33:48;;;;;;;12.10;10.90;;;13.50;99.90;;;14.13;100.00;96759.63;5181591;28;20289;-65
2021/10/21 00:36:21;;;;;;;10.38;9.43;;;13.50;99.90;;;14.14;100.00;96763.09;5181072;28;20206;-65
2021/10/21 00:38:54;;;;;;;10.68;9.77;;;13.50;99.90;;;14.16;100.00;96769.13;5179142;28;20222;-64
2021/10/21 00:41:27;;;;;;;10.77;9.80;;;13.50;99.90;;;14.17;100.00;96758.03;5185954;28;20223;-65
2021/10/21 00:44:12;;;;;;;11.43;10.30;;;13.50;99.90;;;14.33;100.00;96742.13;5183144;28;20226;-65
2021/10/21 00:46:45;;;;;;;12.25;11.15;;;13.60;99.90;;;14.19;100.00;96733.22;5189852;28;20217;-66
2021/10/21 00:49:20;;;;;;;12.13;11.02;;;13.50;99.90;;;14.32;100.00;96709.56;5188527;28;20215;-65
2021/10/21 00:51:54;;;;;;;12.30;11.10;;;13.50;99.90;;;14.16;100.00;96702.31;5185814;28;20241;-65
2021/10/21 00:54:27;;;;;;;11.95;10.88;;;13.40;99.90;;;14.06;100.00;96713.22;5191338;28;20195;-65
2021/10/21 00:57:03;;;;;;;12.43;11.23;;;13.30;99.90;;;13.96;100.00;96707.84;5205632;28;20209;-64
2021/10/21 00:59:37;;;;;;;12.13;10.93;;;13.20;99.90;;;13.90;100.00;96710.25;5187380;28;20195;-62
2021/10/21 01:02:10;;;;;;;12.95;11.65;;;13.20;99.90;;;13.90;100.00;96724.78;5184682;28;20640;-65
2021/10/21 01:04:46;;;;;;;12.63;11.43;;;13.20;99.90;;;13.97;100.00;96712.16;5187646;28;20202;-66
2021/10/21 01:07:19;;;;;;;12.40;11.20;;;13.30;99.90;;;14.01;100.00;96691.66;5196383;28;20245;-66
2021/10/21 01:09:53;;;;;;;13.63;12.23;;;13.20;99.90;;;13.84;100.00;96694.69;5193873;28;20290;-66
2021/10/21 01:12:26;;;;;;;12.23;11.00;;;13.20;99.90;;;13.79;100.00;96701.38;5189772;28;20210;-64
2021/10/21 01:15:17;;;;;;;11.88;10.65;;;13.20;99.90;;;13.87;100.00;96666.50;5182687;28;20207;-65
2021/10/21 01:17:51;;;;;;;12.10;10.90;;;13.20;99.90;;;13.88;100.00;96665.69;5185536;28;20199;-64
2021/10/21 01:20:27;;;;;;;11.45;10.45;;;13.20;99.90;;;13.85;100.00;96645.06;5184880;28;20240;-65
2021/10/21 01:23:00;;;;;;;12.63;11.20;;;13.20;99.90;;;13.91;100.00;96634.94;5178757;28;20203;-65
2021/10/21 01:25:33;;;;;;;12.70;11.40;;;13.20;99.90;;;13.87;100.00;96621.97;5181921;28;20199;-65
2021/10/21 01:28:06;;;;;;;11.80;10.70;;;13.20;99.90;;;13.88;100.00;96616.03;5183728;28;20222;-65
2021/10/21 01:30:39;;;;;;;11.73;10.63;;;13.20;99.90;;;13.86;100.00;96623.69;5183377;28;20690;-65
2021/10/21 01:33:13;;;;;;;12.25;11.15;;;13.20;99.90;;;13.86;100.00;96594.56;5183900;28;20199;-64
2021/10/21 01:35:48;;;;;;;12.70;11.50;;;13.20;99.90;;;13.92;100.00;96584.41;5190540;28;20201;-64
2021/10/21 01:38:21;;;;;;;12.07;10.85;;;13.20;99.90;;;13.90;100.00;96593.78;5192739;28;20298;-64
2021/10/21 01:40:54;;;;;;;11.55;10.45;;;13.20;99.90;;;13.91;100.00;96619.53;5187013;28;20249;-64
2021/10/21 01:43:27;;;;;;;11.68;10.57;;;13.20;99.90;;;13.91;100.00;96629.78;5186077;28;20665;-64
2021/10/21 01:46:00;;;;;;;11.82;10.73;;;13.20;99.90;;;13.91;100.00;96637.50;5181626;28;20203;-64
2021/10/21 01:48:33;;;;;;;13.00;11.57;;;13.20;99.90;;;13.88;100.00;96614.31;5183856;28;20225;-64
2021/10/21 01:51:08;;;;;;;12.80;11.48;;;13.20;99.90;;;13.90;100.00;96589.50;5183819;28;20221;-65
2021/10/21 01:53:41;;;;;;;13.00;11.73;;;13.20;99.90;;;13.91;100.00;96578.41;5188278;28;20239;-65
2021/10/21 01:56:14;;;;;;;12.00;10.90;;;13.30;99.90;;;13.91;100.00;96559.56;5183295;28;20202;-64
2021/10/21 01:58:47;;;;;;;11.38;10.23;;;13.20;99.90;;;13.94;100.00;96552.81;5189698;28;20207;-64
2021/10/21 02:01:20;;;;;;;11.43;10.23;;;13.30;99.90;;;13.92;100.00;96562.16;5185572;28;20689;-65
2021/10/21 02:03:54;;;;;;;10.32;9.32;;;13.30;99.90;;;13.95;100.00;96533.13;5189987;28;20214;-64
2021/10/21 02:06:28;;;;;;;10.48;9.38;;;13.30;99.90;;;14.19;100.00;96514.78;5185469;28;20613;-64
2021/10/21 02:09:01;;;;;;;9.95;9.05;;;13.40;99.90;;;14.28;100.00;96503.81;5184071;28;20227;-64
2021/10/21 02:11:34;;;;;;;9.25;8.35;;;13.50;99.90;;;14.31;100.00;96501.34;5181389;28;20603;-63
2021/10/21 02:14:07;;;;;;;9.20;8.30;;;13.50;99.90;;;14.38;100.00;96504.03;5191809;28;20203;-63
2021/10/21 02:16:40;;;;;;;9.82;8.82;;;13.60;99.90;;;14.42;100.00;96489.53;5182416;28;20298;-63
2021/10/21 02:19:14;;;;;;;10.20;9.30;;;13.60;99.90;;;14.43;100.00;96492.16;5185269;28;20670;-62
2021/10/21 02:21:48;;;;;;;10.20;9.05;;;13.60;99.90;;;14.51;100.00;96481.19;5181289;28;20769;-62
2021/10/21 02:24:21;;;;;;;9.27;8.48;;;13.70;99.90;;;14.50;100.00;96476.84;5182537;28;20197;-62
2021/10/21 02:26:54;;;;;;;9.98;8.98;;;13.70;99.90;;;14.55;100.00;96465.84;5174560;28;20207;-62
2021/10/21 02:29:27;;;;;;;10.00;9.00;;;13.80;99.90;;;14.47;100.00;96466.50;5181684;28;20218;-62
2021/10/21 02:32:00;;;;;;;10.45;9.48;;;13.70;99.90;;;14.50;100.00;96454.56;5182626;28;20213;-61
2021/10/21 02:34:33;;;;;;;10.98;9.98;;;13.70;99.90;;;14.47;100.00;96448.50;5180142;28;20210;-61
2021/10/21 02:37:08;;;;;;;9.98;8.98;;;13.70;99.90;;;14.63;100.00;96425.72;5180227;28;20226;-61
2021/10/21 02:39:41;;;;;;;10.73;9.70;;;13.80;99.90;;;14.58;100.00;96429.03;5178683;28;20453;-62
2021/10/21 02:42:14;;;;;;;10.52;9.43;;;13.80;99.90;;;14.59;100.00;96394.75;5180452;28;20638;-62
2021/10/21 02:44:47;;;;;;;9.43;8.48;;;13.80;99.90;;;14.60;100.00;96391.38;5182194;28;20195;-61
2021/10/21 02:47:21;;;;;;;11.10;8.93;;;13.90;99.90;;;14.62;100.00;96410.25;5180217;28;20665;-61
2021/10/21 02:49:54;;;;;;;10.07;9.07;;;13.90;99.90;;;14.63;100.00;96428.28;5181409;28;20227;-61
2021/10/21 02:52:28;;;;;;;9.93;8.98;;;14.00;99.90;;;14.66;100.00;96432.63;5184949;28;20202;-61
2021/10/21 02:55:01;;;;;;;10.35;9.27;;;14.00;99.90;;;14.69;100.00;96421.53;5180512;28;20285;-61
2021/10/21 02:57:35;;;;;;;10.35;9.40;;;14.10;99.90;;;14.72;100.00;96434.44;5185274;28;20250;-61
2021/10/21 03:00:11;;;;;;;10.52;9.52;;;14.00;99.90;;;14.66;100.00;96432.63;5176810;28;20225;-61
2021/10/21 03:02:44;;;;;;;10.57;9.57;;;14.00;99.90;;;14.69;100.00;96431.81;5190284;28;20207;-61
2021/10/21 03:05:18;;;;;;;11.23;10.20;;;13.90;99.90;;;14.65;100.00;96423.19;5181962;28;20222;-61
2021/10/21 03:07:52;;;;;;;10.85;9.77;;;13.90;99.90;;;14.73;100.00;96419.03;5184820;28;20207;-60
2021/10/21 03:10:25;;;;;;;10.55;9.65;;;13.90;99.90;;;14.68;100.00;96420.66;5190704;28;20244;-60
2021/10/21 03:12:58;;;;;;;11.02;10.02;;;13.90;99.90;;;14.68;100.00;96418.09;5185426;28;20210;-60
2021/10/21 03:15:32;;;;;;;12.15;10.25;;;13.90;99.90;;;14.72;100.00;96401.88;5184470;28;20298;-59
2021/10/21 03:18:05;;;;;;;10.70;9.68;;;13.90;99.90;;;14.79;100.00;96408.88;5179827;28;20207;-61
2021/10/21 03:20:38;;;;;;;11.02;9.93;;;13.90;99.90;;;14.73;100.00;96402.72;5188680;28;20305;-59
2021/10/21 03:23:12;;;;;;;10.90;9.88;;;13.90;99.90;;;14.77;100.00;96389.09;5179905;28;20209;-60
2021/10/21 03:25:45;;;;;;;10.70;9.60;;;13.90;99.90;;;14.76;100.00;96395.06;5174508;28;20725;-60
2021/10/21 03:28:19;;;;;;;10.93;9.93;;;13.90;99.90;;;14.64;100.00;96406.00;5181569;28;20294;-61
2021/10/21 03:30:52;;;;;;;10.85;9.85;;;13.80;99.90;;;14.62;100.00;96411.13;5176528;28;20713;-59
2021/10/21 03:33:25;;;;;;;11.68;10.48;;;13.90;99.90;;;14.57;100.00;96417.03;5178048;28;20229;-58
2021/10/21 03:35:59;;;;;;;11.57;10.48;;;13.80;99.90;;;14.63;100.00;96420.56;5180869;28;20294;-60
2021/10/21 03:38:33;;;;;;;11.82;10.70;;;13.80;99.90;;;14.63;100.00;96422.28;5183012;28;20561;-60
2021/10/21 03:41:07;;;;;;;12.23;11.00;;;13.80;99.90;;;14.60;100.00;96441.09;5175098;28;20597;-61
2021/10/21 03:43:40;;;;;;;12.07;10.88;;;13.80;99.90;;;14.60;100.00;96432.50;5174789;28;20203;-61
2021/10/21 03:46:13;;;;;;;11.18;9.93;;;13.80;99.90;;;14.69;100.00;96435.25;5182735;28;20547;-61
2021/10/21 03:48:46;;;;;;;11.45;10.45;;;13.90;99.90;;;14.70;100.00;96454.97;5183632;28;20206;-61
2021/10/21 03:51:19;;;;;;;9.57;8.77;;;13.80;99.90;;;14.67;100.00;96457.50;5180234;28;20225;-60
2021/10/21 03:53:54;;;;;;;9.82;8.93;;;13.80;99.90;;;14.78;100.00;96445.69;5178549;28;20647;-59
2021/10/21 03:56:27;;;;;;;9.25;8.35;;;13.90;99.90;;;14.71;100.00;96448.13;5176470;28;20333;-61
2021/10/21 03:59:00;;;;;;;8.80;7.90;;;13.90;99.90;;;14.71;100.00;96440.41;5176563;28;20295;-60
2021/10/21 04:01:33;;;;;;;8.07;7.38;;;13.90;99.90;;;14.76;100.00;96443.94;5174442;28;20223;-61
2021/10/21 04:04:06;;;;;;;7.82;7.13;;;14.00;99.90;;;14.73;100.00;96444.75;5177400;28;20915;-61
2021/10/21 04:06:41;;;;;;;7.45;6.85;;;14.00;99.90;;;14.71;100.00;96455.84;5184319;28;20294;-60
2021/10/21 04:09:15;;;;;;;8.88;7.53;;;14.00;99.90;;;14.64;100.00;96465.16;5178124;28;20332;-60
2021/10/21 04:11:48;;;;;;;6.78;6.18;;;13.90;99.90;;;14.63;100.00;96473.72;5172607;28;20218;-60
2021/10/21 04:14:21;;;;;;;7.70;7.00;;;13.90;99.90;;;14.68;100.00;96473.78;5180750;28;20198;-60
2021/10/21 04:16:55;;;;;;;6.68;6.07;;;13.90;99.90;;;14.69;100.00;96481.53;5185551;28;20297;-60
2021/10/21 04:19:28;;;;;;;6.28;5.70;;;13.90;99.90;;;14.75;100.00;96486.78;5180337;28;20198;-60
2021/10/21 04:22:02;;;;;;;6.38;5.70;;;13.80;99.90;;;14.68;100.00;96502.06;5181716;28;20298;-61
2021/10/21 04:24:36;;;;;;;5.15;4.72;;;13.90;99.90;;;14.65;100.00;96492.63;5173078;28;20234;-60
2021/10/21 04:27:09;;;;;;;5.65;5.15;;;13.90;99.90;;;14.70;100.00;96514.13;5176384;28;20237;-60
2021/10/21 04:29:42;;;;;;;4.97;4.55;;;13.90;99.90;;;14.70;100.00;96515.84;5175187;28;20225;-62
2021/10/21 04:32:16;;;;;;;4.72;4.32;;;13.90;99.90;;;14.69;100.00;96524.41;5175257;28;20779;-60
2021/10/21 04:34:49;;;;;;;4.40;3.92;;;13.90;99.90;;;14.67;100.00;96505.50;5172571;28;20213;-60
2021/10/21 04:37:22;;;;;;;3.38;3.10;;;13.90;99.90;;;14.62;100.00;96526.88;5176745;28;20198;-62
2021/10/21 04:39:56;;;;;;;3.78;3.47;;;13.80;99.90;;;14.72;100.00;96522.75;5175341;28;20226;-60
2021/10/21 04:42:29;;;;;;;3.30;3.10;;;13.90;99.90;;;14.65;100.00;96541.50;5181150;28;20198;-61
2021/10/21 04:45:03;;;;;;;3.55;3.20;;;13.80;99.90;;;14.63;100.00;96532.88;5178160;28;20644;-60
2021/10/21 04:47:36;;;;;;;2.95;2.38;;;13.70;99.90;;;14.58;98.16;96537.03;5180775;28;20205;-62
2021/10/21 04:50:09;;;;;;;2.72;2.58;;;13.70;99.90;;;14.48;100.00;96542.78;5173847;28;20226;-59
2021/10/21 04:52:42;;;;;;;3.50;2.70;;;13.50;99.90;;;14.49;100.00;96541.97;5181150;28;20285;-59
2021/10/21 04:55:17;;;;;;;2.47;2.33;;;13.50;99.90;;;14.42;100.00;96557.28;5172170;28;20223;-60
2021/10/21 04:57:51;;;;;;;3.22;2.22;;;13.40;99.90;;;14.37;96.17;96566.59;5180081;28;20296;-61
2021/10/21 05:00:24;;;;;;;3.20;2.35;;;13.40;99.90;;;14.41;98.82;96586.38;5177949;28;20313;-60
2021/10/21 05:02:58;;;;;;;2.10;1.90;;;13.30;99.90;;;14.35;97.67;96583.69;5181866;28;20201;-61
2021/10/21 05:05:31;;;;;;;2.30;2.10;;;13.30;99.90;;;14.26;97.07;96586.06;5177750;28;20198;-61
2021/10/21 05:08:05;;;;;;;2.20;2.00;;;13.20;99.90;;;14.24;96.13;96592.84;5178095;28;20198;-59
2021/10/21 05:10:40;;;;;;;2.15;1.95;;;13.20;99.90;;;14.15;96.54;96590.09;5176639;28;20222;-60
2021/10/21 05:13:13;;;;;;;3.00;1.63;;;13.20;99.90;;;14.11;93.95;96588.28;5171262;28;20638;-59
2021/10/21 05:15:46;;;;;;;2.63;1.90;;;13.20;99.90;;;14.12;94.62;96597.72;5178122;28;20293;-61
2021/10/21 05:18:19;;;;;;;2.08;1.85;;;13.10;99.90;;;14.07;93.99;96587.34;5190666;28;20203;-63
2021/10/21 05:20:52;;;;;;;2.08;1.90;;;13.10;99.90;;;13.95;92.19;96580.22;5186471;28;20603;-60
2021/10/21 05:23:25;;;;;;;2.53;1.95;;;13.10;99.90;;;13.89;90.79;96594.63;5173227;28;20243;-62
2021/10/21 05:25:59;;;;;;;2.72;1.90;;;13.10;99.90;;;13.81;89.12;96604.72;5176772;28;20314;-62
2021/10/21 05:28:32;;;;;;;3.40;1.85;;;13.10;99.90;;;13.85;90.77;96603.97;5189048;28;20207;-62
2021/10/21 05:31:05;;;;;;;2.22;2.03;;;13.10;99.90;;;13.62;90.29;96605.97;5188777;28;20360;-61
2021/10/21 05:33:39;;;;;;;2.60;1.90;;;13.10;99.90;;;13.54;86.50;96606.63;5186117;28;20198;-62
2021/10/21 05:36:17;;;;;;;4.22;1.60;;;13.00;99.90;;;13.52;88.05;96610.00;5175090;28;20225;-61
2021/10/21 05:38:51;;;;;;;2.50;1.85;;;12.90;99.90;;;13.48;89.02;96610.75;5178776;28;21600;-60
2021/10/21 05:41:26;;;;;;;3.47;1.88;;;12.80;99.90;;;13.45;88.60;96633.78;5175355;28;20714;-62
2021/10/21 05:43:59;;;;;;;4.07;2.22;;;12.80;99.90;;;13.42;88.06;96630.25;5180358;28;20197;-62
2021/10/21 05:46:32;;;;;;;3.20;1.80;;;12.80;99.90;;;13.32;88.50;96634.28;5184007;28;20842;-61
2021/10/21 05:49:05;;;;;;;2.47;1.35;;;12.70;99.90;;;13.30;91.61;96643.63;5180324;28;20750;-62
2021/10/21 05:51:38;;;;;;;2.42;1.88;;;12.70;99.90;;;13.28;90.77;96655.56;5183916;28;20226;-61
2021/10/21 05:54:11;;;;;;;2.85;1.83;;;12.70;99.90;;;13.26;92.32;96658.09;5175782;28;20227;-59
2021/10/21 05:56:45;;;;;;;2.22;1.88;;;12.60;99.90;;;13.25;90.89;96652.91;5188536;28;20278;-60
2021/10/21 05:59:18;;;;;;;2.42;1.92;;;12.60;99.90;;;13.31;91.23;96665.91;5184748;28;20208;-61
2021/10/21 06:01:52;;;;;;;3.15;2.10;;;12.60;99.90;;;13.32;90.33;96657.38;5189858;28;20317;-60
2021/10/21 06:04:25;;;;;;;3.00;2.25;;;12.70;99.90;;;13.32;84.17;96667.66;5178719;28;20205;-61
2021/10/21 06:06:58;;;;;;;3.55;2.05;;;12.90;99.90;;;13.29;85.46;96668.44;5183435;28;20202;-61
2021/10/21 06:09:31;;;;;;;3.78;2.33;;;13.00;99.90;;;13.23;81.00;96687.91;5182705;28;20202;-62
2021/10/21 06:12:07;;;;;;;4.97;2.20;;;12.90;99.90;;;13.21;79.89;96690.41;5176296;28;20305;-60
2021/10/21 06:14:40;;;;;;;6.20;2.40;;;12.90;99.90;;;13.23;82.04;96713.56;5179370;28;20564;-60
2021/10/21 06:17:13;;;;;;;4.43;2.25;;;12.80;99.90;;;13.23;81.57;96700.72;5181720;28;20290;-61
2021/10/21 06:19:46;;;;;;;3.13;1.80;;;12.80;99.90;;;13.20;80.36;96728.88;5177459;28;20658;-62
2021/10/21 06:22:20;;;;;;;6.38;2.13;;;12.80;99.90;;;13.12;75.19;96750.88;5181119;28;20198;-61
2021/10/21 06:24:54;;;;;;;3.42;2.10;;;12.70;99.90;;;13.23;79.34;96741.78;5184757;28;20266;-61
2021/10/21 06:27:29;;;;;;;5.05;2.10;;;12.70;99.90;;;13.23;77.85;96754.63;5182950;28;20232;-62
2021/10/21 06:30:02;;;;;;;5.93;2.00;;;12.80;99.90;;;13.15;75.08;96768.91;5180198;28;20676;-62
2021/10/21 06:32:37;;;;;;;5.88;2.05;;;12.70;99.90;;;13.25;76.75;96779.53;5175539;28;20223;-60
2021/10/21 06:35:15;;;;;;;5.53;2.00;;;12.80;99.90;;;13.25;75.25;96774.41;5184608;28;20202;-62
2021/10/21 06:37:49;;;;;;;6.00;2.20;;;12.80;99.90;;;13.28;74.98;96781.31;5183300;28;20669;-59
2021/10/21 06:40:23;;;;;;;5.07;2.10;;;12.90;99.90;;;13.31;74.81;96793.38;5180570;28;20225;-60
2021/10/21 06:42:58;;;;;;;6.82;2.90;;;12.80;99.90;;;13.43;75.12;96793.72;5173247;28;20562;-60
2021/10/21 06:45:31;;;;;;;5.72;2.47;;;12.80;99.90;;;13.46;73.86;96793.81;5178639;28;20206;-63
2021/10/21 06:48:05;;;;;;;5.28;2.10;;;12.90;99.90;;;13.51;72.60;96792.25;5186625;28;20609;-62
2021/10/21 06:50:38;;;;;;;3.40;2.10;;;13.00;99.90;;;13.58;73.25;96783.00;5187331;28;20211;-60
2021/10/21 06:53:11;;;;;;;6.45;2.22;;;13.10;99.90;;;13.51;74.52;96785.41;5177054;28;20718;-61
2021/10/21 06:55:44;;;;;;;6.93;2.13;;;13.00;99.90;;;13.58;73.19;96783.88;5188511;28;20507;-61
2021/10/21 06:58:19;;;;;;;4.85;2.13;;;13.10;99.90;;;13.64;71.71;96793.44;5186594;28;20223;-62
2021/10/21 07:00:53;;;;;;;4.50;1.90;;;13.20;99.90;;;13.71;72.10;96792.78;5195191;28;20632;-61
2021/10/21 07:03:26;;;;;;;5.72;2.40;;;13.20;99.90;;;13.77;70.53;96787.81;5193469;28;20205;-60
2021/10/21 07:06:00;;;;;;;6.78;2.20;;;13.30;99.90;;;13.94;70.44;96799.41;5179575;28;20261;-61
2021/10/21 07:08:33;;;;;;;4.63;2.30;;;13.40;99.90;;;13.96;68.36;96794.31;5183948;28;20243;-59
2021/10/21 07:11:08;;;;;;;5.63;1.90;;;13.50;99.90;;;14.01;67.88;96797.00;5177141;28;20234;-60
2021/10/21 07:13:42;;;;;;;4.82;2.10;;;13.50;99.90;;;14.13;67.77;96826.44;5176606;28;20550;-61
2021/10/21 07:16:16;;;;;;;7.20;2.53;;;13.60;99.90;;;14.28;68.27;96831.16;5173197;28;20202;-60
2021/10/21 07:18:50;;;;;;;6.95;2.15;;;13.90;99.90;;;14.58;67.05;96836.22;5187491;28;20264;-62
2021/10/21 07:21:23;;;;;;;4.93;1.98;;;14.10;99.90;;;14.81;66.10;96838.47;5179853;28;20224;-61
2021/10/21 07:23:57;;;;;;;6.22;2.20;;;14.20;99.90;;;14.93;64.25;96849.03;5186085;28;20298;-61
2021/10/21 07:26:30;;;;;;;5.25;2.40;;;14.30;99.90;;;14.97;64.94;96857.72;5177132;28;20294;-62
2021/10/21 07:29:04;;;;;;;6.60;2.20;;;14.30;99.90;;;14.86;63.21;96865.19;5188271;28;20583;-60
2021/10/21 07:31:37;;;;;;;5.53;2.40;;;14.20;99.90;;;14.75;64.39;96872.63;5177105;28;20675;-61
2021/10/21 07:34:11;;;;;;;5.45;2.28;;;14.00;99.90;;;14.77;64.22;96883.84;5173102;28;20215;-60
2021/10/21 07:36:44;;;;;;;8.70;2.53;;;14.00;99.90;;;14.68;63.94;96900.72;5179025;28;20199;-60
2021/10/21 07:39:17;;;;;;;5.65;2.38;;;13.90;99.90;;;14.53;62.61;96899.50;5180120;28;20243;-60
2021/10/21 07:41:50;;;;;;;5.35;2.40;;;13.90;99.90;;;14.47;64.16;96914.75;5179558;28;20305;-60
2021/10/21 07:44:24;;;;;;;5.55;2.28;;;13.80;99.90;;;14.40;64.81;96928.28;5205060;23;20921;-82
2021/10/21 07:46:58;;;;;;;4.82;1.92;;;13.80;99.90;;;14.28;63.81;96935.63;5203877;28;20201;-86
2021/10/21 07:49:32;;;;;;;5.75;2.63;;;13.70;99.90;;;14.17;64.73;96950.78;5203544;28;20202;-85
2021/10/21 07:52:06;;;;;;;4.68;2.42;;;13.60;99.90;;;14.19;64.93;96969.66;5205738;28;20756;-85
2021/10/21 07:54:40;;;;;;;7.28;2.28;;;13.50;99.90;;;14.20;64.14;96956.88;5195233;28;20226;-85
2021/10/21 07:57:13;;;;;;;6.22;2.53;;;13.50;99.90;;;14.23;64.05;96966.38;5179944;28;20566;-86
2021/10/21 07:59:49;;;;;;;4.50;2.17;;;13.60;99.90;;;14.28;64.28;96969.06;5184181;28;20194;-86
2021/10/21 08:02:22;;;;;;;6.97;2.33;;;13.60;99.90;;;14.29;63.83;96981.97;5181843;28;20666;-86
2021/10/21 08:04:55;;;;;;;6.45;2.20;;;13.50;99.90;;;14.23;62.32;97007.50;5181725;28;20222;-85
2021/10/21 08:07:28;;;;;;;6.18;1.85;;;13.50;99.90;;;14.18;61.59;96998.78;5182664;28;20198;-85
2021/10/21 08:10:01;;;;;;;4.50;1.90;;;13.60;99.90;;;14.20;62.23;97008.28;5178937;28;20224;-86
2021/10/21 08:12:35;;;;;;;11.80;2.72;;;13.70;99.90;;;14.23;62.58;97019.47;5181064;28;20222;-85
2021/10/21 08:15:11;;;;;;;3.30;2.00;;;13.60;99.90;;;14.30;60.70;97019.69;5183807;28;20308;-84
2021/10/21 08:17:45;;;;;;;3.58;2.35;;;13.70;99.90;;;14.32;60.76;97020.59;5187775;28;20285;-84
2021/10/21 08:20:18;;;;;;;3.30;1.88;;;13.70;99.90;;;14.31;60.50;97026.59;5189232;28;20266;-84
2021/10/21 08:22:51;;;;;;;1.92;1.50;;;13.70;99.90;;;14.39;59.82;97032.84;5187961;28;20280;-84
2021/10/21 08:25:25;;;;;;;2.58;1.50;;;13.70;99.90;;;14.37;58.29;97039.63;5185096;28;20258;-84
2021/10/21 08:28:00;;;;;;;5.95;1.45;;;13.70;99.90;;;14.35;59.19;97028.41;5190098;28;20202;-84
2021/10/21 08:30:37;;;;;;;2.90;1.30;;;13.70;99.90;;;14.40;58.33;97055.13;5192029;28;20269;-83
2021/10/21 08:33:13;;;;;;;4.43;1.73;;;13.70;99.90;;;14.47;57.58;97057.88;5193944;28;20259;-84
2021/10/21 08:35:46;;;;;;;3.03;1.40;;;13.80;99.90;;;14.53;57.03;97069.22;5194793;28;20237;-83
2021/10/21 08:38:19;;;;;;;3.13;1.60;;;13.90;99.90;;;14.47;57.12;97068.16;5192244;28;20285;-84
2021/10/21 08:40:53;;;;;;;3.70;1.85;;;13.80;99.90;;;14.52;57.20;97100.94;5195361;28;20708;-86
2021/10/21 08:43:27;;;;;;;3.15;1.48;;;13.90;99.90;;;14.61;56.98;97092.59;5192904;28;20572;-85
2021/10/21 08:46:03;;;;;;;2.40;1.38;;;14.00;99.90;;;14.65;56.82;97099.59;5193977;28;20300;-85
2021/10/21 08:48:40;;;;;;;2.30;1.55;;;14.00;99.90;;;14.63;57.05;97132.13;5193086;28;20198;-85
2021/10/21 08:51:14;;;;;;;3.75;1.60;;;14.00;99.90;;;14.69;56.59;97139.13;5194104;28;20692;-85
2021/10/21 08:53:47;;;;;;;4.93;1.40;;;14.10;99.90;;;14.68;58.22;97138.28;5193776;28;20250;-85
2021/10/21 08:56:22;;;;;;;2.47;1.50;;;13.90;99.90;;;14.69;56.08;97157.13;5194245;28;20684;-85
2021/10/21 08:58:56;;;;;;;2.70;1.38;;;13.80;99.90;;;14.67;56.47;97169.94;5194537;28;20265;-85
2021/10/21 09:01:36;;;;;;;3.92;1.48;;;13.90;99.90;;;14.73;56.48;97164.97;5198826;28;20289;-85
2021/10/21 09:04:24;;;;;;;2.97;1.27;;;14.10;99.90;;;14.77;55.83;97164.25;5199573;28;20256;-84
2021/10/21 09:09:48;;;;;;;1.77;1.25;;;14.10;99.90;;;14.79;55.80;97201.19;5195541;28;20285;-84
2021/10/21 09:12:21;;;;;;;2.33;1.50;;;14.10;99.90;;;14.74;55.51;97192.47;5198094;28;20258;-84
2021/10/21 09:14:54;;;;;;;2.30;1.40;;;14.00;99.90;;;14.66;55.48;97218.78;5198437;28;20319;-84
2021/10/21 09:17:29;;;;;;;3.95;1.35;;;14.10;99.90;;;14.73;56.26;97224.16;5197396;28;20222;-84
2021/10/21 09:20:30;;;;;;;3.20;1.30;;;14.00;99.90;;;14.58;55.97;97221.97;5197312;28;20214;-84
2021/10/21 09:23:06;;;;;;;3.20;1.30;;;14.00;99.90;;;14.67;56.69;97246.25;5196275;28;20673;-84
2021/10/21 09:25:41;;;;;;;1.50;1.40;;;14.00;99.90;;;14.67;56.75;97247.13;5197526;28;20725;-84
2021/10/21 09:28:21;;;;;;;3.53;1.58;;;14.10;99.90;;;14.72;56.58;97263.56;5198592;28;20721;-85
2021/10/21 09:31:03;;;;;;;1.63;1.20;;;14.10;99.90;;;14.89;56.12;97282.09;5193667;28;20285;-85
2021/10/21 09:33:46;;;;;;;2.25;1.30;;;14.10;99.90;;;14.91;57.41;97271.84;5195300;28;20225;-84
2021/10/21 09:36:21;;;;;;;1.48;1.38;;;14.10;99.90;;;14.88;57.18;97288.09;5194999;28;20257;-84
2021/10/21 09:38:56;;;;;;;1.83;1.10;;;14.10;99.90;;;14.82;56.26;97286.19;5192224;28;20680;-84
2021/10/21 09:41:33;;;;;;;2.88;1.30;;;14.10;99.90;;;14.83;57.08;97316.25;5191903;28;20217;-84
2021/10/21 09:44:24;;;;;;;1.20;1.20;;;14.00;99.90;;;14.91;57.34;97313.91;5194758;28;20598;-85
2021/10/21 09:46:59;;;;;;;1.63;1.23;;;14.20;99.90;;;14.98;57.56;97325.25;5192871;28;20202;-84
2021/10/21 09:49:33;;;;;;;1.48;1.20;;;14.30;99.90;;;15.14;56.63;97348.09;5195512;28;20285;-84
2021/10/21 09:52:19;;;;;;;1.70;1.17;;;14.40;99.90;;;15.09;56.47;97350.50;5195073;28;20252;-84
2021/10/21 09:54:53;;;;;;;1.10;1.10;;;14.30;99.90;;;15.08;55.66;97359.06;5186993;28;20236;-85
2021/10/21 09:57:32;;;;;;;1.48;1.10;;;14.30;99.90;;;15.00;56.03;97349.34;5183194;28;20321;-84
2021/10/21 10:00:10;;;;;;;1.55;1.08;;;14.10;99.90;;;15.08;55.19;97364.22;5178875;28;20545;-86
2021/10/21 10:02:44;;;;;;;1.17;1.17;;;14.00;99.90;;;15.10;56.08;97370.25;5184542;28;20208;-85
2021/10/21 10:05:19;;;;;;;1.38;1.10;;;14.00;99.90;;;14.96;56.75;97373.22;5184144;28;20221;-85
2021/10/21 10:07:52;;;;;;;1.08;1.08;;;14.10;99.90;;;14.74;57.62;97380.28;5186330;28;20233;-85
2021/10/21 10:10:25;;;;;;;1.95;1.10;;;14.00;99.90;;;14.74;57.41;97390.56;5185715;28;20213;-85
2021/10/21 10:12:59;;;;;;;1.35;0.93;;;14.00;99.90;;;14.81;56.02;97407.94;5189107;28;20789;-85
2021/10/21 10:15:34;;;;;;;1.50;1.10;;;14.00;99.90;;;14.63;56.40;97395.34;5183998;28;20310;-85
2021/10/21 10:18:09;;;;;;;1.05;0.95;;;14.00;99.90;;;14.72;56.69;97410.22;5186955;28;20202;-84
2021/10/21 10:21:11;;;;;;;1.60;1.35;;;13.80;99.90;;;14.86;56.80;97408.09;5194411;28;20202;-84
2021/10/21 10:23:51;;;;;;;2.95;1.30;;;14.00;99.90;;;15.14;55.11;97419.25;5189749;28;20214;-84
2021/10/21 10:26:49;;;;;;;1.17;1.08;;;14.40;99.90;;;15.30;55.19;97432.69;5193963;28;20230;-84
2021/10/21 10:29:45;;;;;;;1.15;1.05;;;14.50;99.90;;;15.26;52.12;97437.69;5175902;28;20230;-84
2021/10/21 10:32:40;;;;;;;1.90;1.13;;;14.50;98.90;;;15.01;51.36;97459.19;5192956;28;20259;-84
2021/10/21 10:35:14;;;;;;;1.30;1.30;;;14.20;98.00;;;14.84;51.08;97456.06;5189867;28;20807;-84
2021/10/21 10:38:07;;;;;;;1.90;1.30;;;13.90;98.00;;;14.59;52.41;97460.38;5188469;28;20238;-84
2021/10/21 10:40:44;;;;;;;1.80;1.17;;;13.80;98.60;;;14.59;54.26;97454.34;5184769;28;20673;-84
2021/10/21 10:43:19;;;;;;;1.08;1.08;;;13.80;99.80;;;14.59;53.22;97459.47;5193225;28;20270;-85
2021/10/21 10:46:12;;;;;;;1.15;1.05;;;13.90;99.00;;;14.59;53.20;97459.47;5194268;28;20226;-84